Time;durP1;ratioP1;P1;durP2;ratioP2;P2;SDS_P1;SDS_P2;PMS_P1;PMS_P2;Temp;Humidity;BMP_temperature;BMP_pressure;BME280_temperature;BME280_humidity;BME280_pressure;Samples;Min_cycle;Max_cycle;Signal;HPM_P1;HPM_P2
2023/01/01 00:02:08;;;;;;;0.90;0.63;;;21.60;99.90;;;;;;5068173;28;20032;-73
2023/01/01 00:04:34;;;;;;;0.20;0.20;;;21.40;99.90;;;;;;5069305;28;20105;-74
2023/01/01 00:07:00;;;;;;;0.10;0.10;;;21.20;99.90;;;;;;5069817;28;20032;-72
2023/01/01 00:12:10;;;;;;;2.25;2.08;;;21.10;99.90;;;;;;5070189;28;20040;-74
2023/01/01 00:14:38;;;;;;;1.65;1.00;;;21.10;99.90;;;;;;5060493;28;20029;-77
2023/01/01 00:17:03;;;;;;;1.95;1.85;;;21.00;99.90;;;;;;5065909;28;20170;-76
2023/01/01 00:19:29;;;;;;;0.20;0.20;;;21.10;99.90;;;;;;5070663;28;20488;-76
2023/01/01 00:21:55;;;;;;;0.47;0.47;;;20.90;99.90;;;;;;5070963;28;20028;-79
2023/01/01 00:24:21;;;;;;;1.67;0.98;;;20.90;99.90;;;;;;5071438;28;20037;-79
2023/01/01 00:26:47;;;;;;;0.30;0.30;;;20.90;99.90;;;;;;5071886;28;20388;-78
2023/01/01 00:29:13;;;;;;;0.20;0.20;;;20.90;99.90;;;;;;5071951;28;20021;-79
2023/01/01 00:31:39;;;;;;;0.20;0.20;;;20.80;99.90;;;;;;5070188;28;20020;-76
2023/01/01 00:34:04;;;;;;;0.20;0.20;;;20.80;99.90;;;;;;5070464;28;20056;-75
2023/01/01 00:36:30;;;;;;;1.02;0.28;;;20.70;99.90;;;;;;5070651;28;20052;-77
2023/01/01 00:38:56;;;;;;;0.20;0.20;;;20.80;99.90;;;;;;5071971;28;20024;-76
2023/01/01 00:41:22;;;;;;;0.30;0.30;;;20.80;99.90;;;;;;5076202;28;20021;-75
2023/01/01 00:43:47;;;;;;;0.30;0.30;;;20.90;99.90;;;;;;5068011;28;20114;-73
2023/01/01 00:46:14;;;;;;;2.20;1.80;;;21.00;99.90;;;;;;5070168;28;20627;-73
2023/01/01 00:48:39;;;;;;;0.20;0.20;;;21.00;99.90;;;;;;5071200;28;20099;-72
2023/01/01 00:51:06;;;;;;;0.20;0.20;;;21.00;99.90;;;;;;5070270;28;20124;-70
2023/01/01 00:53:32;;;;;;;0.20;0.20;;;21.00;99.90;;;;;;5071164;28;20031;-70
2023/01/01 00:55:58;;;;;;;0.20;0.20;;;21.00;99.90;;;;;;5065389;28;20033;-68
2023/01/01 00:58:25;;;;;;;0.20;0.20;;;20.90;99.90;;;;;;5067716;28;20074;-70
2023/01/01 01:00:52;;;;;;;0.20;0.20;;;20.90;99.90;;;;;;5061546;28;20039;-70
2023/01/01 01:03:29;;;;;;;0.20;0.20;;;20.90;99.90;;;;;;5058917;28;20487;-71
2023/01/01 01:06:01;;;;;;;1.23;1.23;;;20.80;99.90;;;;;;5070399;28;20111;-72
2023/01/01 01:08:29;;;;;;;0.20;0.20;;;20.80;99.90;;;;;;5069485;28;20081;-71
2023/01/01 01:11:02;;;;;;;0.20;0.20;;;20.70;99.90;;;;;;5070585;28;20028;-70
2023/01/01 01:13:28;;;;;;;1.30;1.20;;;20.70;99.90;;;;;;5068544;28;20049;-70
2023/01/01 01:15:54;;;;;;;0.20;0.20;;;20.60;99.90;;;;;;5049126;28;20036;-69
2023/01/01 01:18:19;;;;;;;0.20;0.20;;;20.60;99.90;;;;;;5050439;28;20512;-71
2023/01/01 01:20:52;;;;;;;0.20;0.20;;;20.50;99.90;;;;;;5050297;28;20391;-69
2023/01/01 01:23:19;;;;;;;0.20;0.20;;;20.40;99.90;;;;;;5050935;28;20040;-69
2023/01/01 01:25:46;;;;;;;0.20;0.20;;;20.40;99.90;;;;;;5050385;28;20035;-69
2023/01/01 01:28:12;;;;;;;0.68;0.68;;;20.30;99.90;;;;;;5053448;28;20017;-68
2023/01/01 01:30:40;;;;;;;0.63;0.63;;;20.30;99.90;;;;;;5053922;28;20029;-70
2023/01/01 01:33:07;;;;;;;0.20;0.20;;;20.30;99.90;;;;;;5053946;28;20355;-70
2023/01/01 01:35:33;;;;;;;0.20;0.20;;;20.30;99.90;;;;;;5053728;28;20595;-71
2023/01/01 01:37:59;;;;;;;0.30;0.30;;;20.30;99.90;;;;;;5052561;28;20036;-70
2023/01/01 01:40:25;;;;;;;0.20;0.20;;;20.20;99.90;;;;;;5054333;28;20141;-71
2023/01/01 01:42:51;;;;;;;2.45;1.10;;;20.20;99.90;;;;;;5062613;28;20489;-70
2023/01/01 01:45:17;;;;;;;0.70;0.70;;;20.10;99.90;;;;;;5073366;28;20028;-69
2023/01/01 01:47:56;;;;;;;0.20;0.20;;;20.10;99.90;;;;;;5073299;28;20017;-70
2023/01/01 01:50:30;;;;;;;1.50;1.20;;;20.10;99.90;;;;;;5073463;28;20101;-71
2023/01/01 01:52:56;;;;;;;0.20;0.20;;;20.00;99.90;;;;;;5071984;28;20389;-70
2023/01/01 01:55:22;;;;;;;0.20;0.20;;;20.00;99.90;;;;;;5073169;28;20024;-70
2023/01/01 01:57:47;;;;;;;0.20;0.20;;;20.00;99.90;;;;;;5072051;28;20032;-69
2023/01/01 02:00:14;;;;;;;0.20;0.20;;;20.10;99.90;;;;;;5073247;28;20074;-70
2023/01/01 02:02:48;;;;;;;0.20;0.20;;;20.00;99.90;;;;;;5073012;28;20099;-69
2023/01/01 02:05:16;;;;;;;0.63;0.63;;;20.00;99.90;;;;;;5073071;28;20028;-70
2023/01/01 02:07:41;;;;;;;0.20;0.20;;;19.90;99.90;;;;;;5073183;28;20633;-70
2023/01/01 02:10:07;;;;;;;8.07;3.30;;;19.90;99.90;;;;;;5072958;28;20020;-70
2023/01/01 02:12:33;;;;;;;0.20;0.20;;;19.90;99.90;;;;;;5073004;28;20044;-69
2023/01/01 02:14:59;;;;;;;0.30;0.30;;;19.90;99.90;;;;;;5073164;28;20078;-69
2023/01/01 02:17:33;;;;;;;2.35;2.17;;;19.90;99.90;;;;;;5071483;28;20449;-70
2023/01/01 02:20:40;;;;;;;0.30;0.30;;;19.90;99.90;;;;;;5072859;28;20124;-69
2023/01/01 02:23:35;;;;;;;0.20;0.20;;;19.90;99.90;;;;;;5072846;28;20047;-69
2023/01/01 02:26:24;;;;;;;0.30;0.30;;;19.90;99.90;;;;;;5071510;28;20036;-70
2023/01/01 02:28:53;;;;;;;0.20;0.20;;;19.80;99.90;;;;;;5072556;28;20024;-69
2023/01/01 02:31:30;;;;;;;4.70;1.85;;;19.80;99.90;;;;;;5072734;28;20008;-69
2023/01/01 02:34:01;;;;;;;0.30;0.30;;;19.70;99.90;;;;;;5072798;28;20381;-69
2023/01/01 02:36:30;;;;;;;0.30;0.30;;;19.70;99.90;;;;;;5072626;28;20052;-69
2023/01/01 02:38:59;;;;;;;0.20;0.20;;;19.70;99.90;;;;;;5072640;28;20035;-70
2023/01/01 02:41:29;;;;;;;0.57;0.57;;;19.70;99.90;;;;;;5073171;28;20028;-69
2023/01/01 02:43:55;;;;;;;0.20;0.20;;;19.70;99.90;;;;;;5072501;28;20041;-69
2023/01/01 02:46:20;;;;;;;0.20;0.20;;;19.60;99.90;;;;;;5072406;28;20070;-69
2023/01/01 02:48:51;;;;;;;0.20;0.20;;;19.50;99.90;;;;;;5072530;28;20103;-69
2023/01/01 02:51:20;;;;;;;0.20;0.20;;;19.50;99.90;;;;;;5072444;28;20150;-70
2023/01/01 02:53:50;;;;;;;0.17;0.17;;;19.40;99.90;;;;;;5072471;28;20103;-69
2023/01/01 02:56:22;;;;;;;0.50;0.50;;;19.30;99.90;;;;;;5072482;28;20024;-70
2023/01/01 03:02:14;;;;;;;0.25;0.25;;;19.30;99.90;;;;;;5072532;28;20031;-69
2023/01/01 03:04:54;;;;;;;2.67;2.45;;;19.30;99.90;;;;;;5071969;28;20043;-68
2023/01/01 03:07:49;;;;;;;25.65;5.90;;;19.20;99.90;;;;;;5071930;28;20029;-68
2023/01/01 03:10:19;;;;;;;1.48;1.40;;;19.20;99.90;;;;;;5070676;28;20489;-67
2023/01/01 03:13:04;;;;;;;1.00;1.00;;;19.10;99.90;;;;;;5064069;28;20040;-68
2023/01/01 03:15:35;;;;;;;0.25;0.25;;;19.10;99.90;;;;;;5072469;28;20025;-69
2023/01/01 03:18:03;;;;;;;0.25;0.25;;;19.10;99.90;;;;;;5057503;28;20483;-66
2023/01/01 03:20:32;;;;;;;0.20;0.20;;;19.10;99.90;;;;;;5052404;28;20087;-68
2023/01/01 03:23:03;;;;;;;0.30;0.30;;;19.00;99.90;;;;;;5051290;28;20492;-69
2023/01/01 03:25:35;;;;;;;0.20;0.20;;;19.00;99.90;;;;;;5051724;28;20029;-68
2023/01/01 03:28:10;;;;;;;0.22;0.22;;;19.00;99.90;;;;;;5051889;28;20032;-68
2023/01/01 03:30:38;;;;;;;0.22;0.22;;;18.90;99.90;;;;;;5069723;28;20036;-69
2023/01/01 03:33:29;;;;;;;0.20;0.20;;;18.90;99.90;;;;;;5071710;28;20025;-69
2023/01/01 03:36:15;;;;;;;4.50;3.50;;;18.90;99.90;;;;;;5071545;28;20021;-68
2023/01/01 03:38:47;;;;;;;1.30;1.23;;;18.80;99.90;;;;;;5071271;28;20025;-68
2023/01/01 03:41:31;;;;;;;0.30;0.30;;;18.80;99.90;;;;;;5071459;28;20017;-68
2023/01/01 03:44:33;;;;;;;0.82;0.82;;;18.80;99.90;;;;;;5059630;28;20033;-68
2023/01/01 03:47:00;;;;;;;0.20;0.20;;;18.80;99.90;;;;;;5051233;28;20060;-68
2023/01/01 03:49:26;;;;;;;0.30;0.30;;;18.70;99.90;;;;;;5054635;28;20268;-68
2023/01/01 03:52:11;;;;;;;0.77;0.77;;;18.80;99.90;;;;;;5060165;28;20116;-68
2023/01/01 03:55:05;;;;;;;0.22;0.22;;;18.70;99.90;;;;;;5071600;28;20103;-67
2023/01/01 03:57:51;;;;;;;0.20;0.20;;;18.80;99.90;;;;;;5051462;28;20056;-68
2023/01/01 04:00:20;;;;;;;0.20;0.20;;;18.70;99.90;;;;;;5051952;28;20108;-68
2023/01/01 04:02:55;;;;;;;0.20;0.20;;;18.70;99.90;;;;;;5051002;28;20100;-68
2023/01/01 04:05:21;;;;;;;2.05;1.65;;;18.70;99.90;;;;;;5051239;28;20033;-68
2023/01/01 04:07:48;;;;;;;0.20;0.20;;;18.70;99.90;;;;;;5057245;28;20020;-68
2023/01/01 04:10:17;;;;;;;0.30;0.30;;;18.60;99.90;;;;;;5069830;28;20389;-69
2023/01/01 04:12:48;;;;;;;0.20;0.20;;;18.60;99.90;;;;;;5070912;28;20135;-69
2023/01/01 04:15:20;;;;;;;0.20;0.20;;;18.60;99.90;;;;;;5070708;28;20037;-68
2023/01/01 04:17:46;;;;;;;0.30;0.30;;;18.70;99.90;;;;;;5055689;28;20032;-69
2023/01/01 04:20:13;;;;;;;0.30;0.30;;;18.70;99.90;;;;;;5051140;28;20104;-69
2023/01/01 04:22:39;;;;;;;0.20;0.20;;;18.70;99.90;;;;;;5060293;28;20030;-69
2023/01/01 04:25:05;;;;;;;0.10;0.10;;;18.70;99.90;;;;;;5070672;28;20036;-69
2023/01/01 04:27:31;;;;;;;0.30;0.30;;;18.60;99.90;;;;;;5070623;28;20388;-68
2023/01/01 04:29:57;;;;;;;0.30;0.30;;;18.60;99.90;;;;;;5070427;28;20032;-69
2023/01/01 04:32:23;;;;;;;3.60;1.55;;;18.60;99.90;;;;;;5070473;28;20021;-70
2023/01/01 04:34:49;;;;;;;0.73;0.73;;;18.60;99.90;;;;;;5070914;28;20028;-69
2023/01/01 04:37:15;;;;;;;2.35;2.25;;;18.50;99.90;;;;;;5070590;28;20028;-69
2023/01/01 04:39:41;;;;;;;0.20;0.20;;;18.50;99.90;;;;;;5070934;28;20046;-70
2023/01/01 04:42:06;;;;;;;0.30;0.30;;;18.40;99.90;;;;;;5070711;28;20028;-69
2023/01/01 04:44:32;;;;;;;0.25;0.25;;;18.40;99.90;;;;;;5070827;28;20089;-69
2023/01/01 04:46:58;;;;;;;1.30;1.02;;;18.40;99.90;;;;;;5071323;28;20031;-69
2023/01/01 04:49:23;;;;;;;0.30;0.30;;;18.30;99.90;;;;;;5070860;28;20386;-69
2023/01/01 04:51:49;;;;;;;0.30;0.30;;;18.30;99.90;;;;;;5070672;28;20083;-69
2023/01/01 04:54:15;;;;;;;0.30;0.30;;;18.30;99.90;;;;;;5070711;28;20079;-69
2023/01/01 04:56:40;;;;;;;10.32;3.10;;;18.20;99.90;;;;;;5070549;28;20039;-69
2023/01/01 04:59:06;;;;;;;0.20;0.20;;;18.20;99.90;;;;;;5070585;28;20028;-68
2023/01/01 05:01:32;;;;;;;0.20;0.20;;;18.20;99.90;;;;;;5071357;28;20146;-69
2023/01/01 05:03:58;;;;;;;0.20;0.20;;;18.20;99.90;;;;;;5074390;28;20040;-68
2023/01/01 05:06:25;;;;;;;0.25;0.25;;;18.10;99.90;;;;;;5074321;28;20024;-68
2023/01/01 05:08:53;;;;;;;0.20;0.20;;;18.10;99.90;;;;;;5074364;28;20055;-68
2023/01/01 05:11:24;;;;;;;0.22;0.22;;;18.10;99.90;;;;;;5074107;28;20033;-68
2023/01/01 05:13:52;;;;;;;0.30;0.30;;;18.10;99.90;;;;;;5073903;28;20493;-69
2023/01/01 05:16:20;;;;;;;0.20;0.20;;;18.00;99.90;;;;;;5074071;28;20040;-69
2023/01/01 05:18:47;;;;;;;0.20;0.20;;;18.00;99.90;;;;;;5074204;28;20024;-68
2023/01/01 05:21:40;;;;;;;0.20;0.20;;;18.00;99.90;;;;;;5074065;28;20017;-68
2023/01/01 05:24:09;;;;;;;0.20;0.20;;;18.00;99.90;;;;;;5070012;28;20040;-68
2023/01/01 05:26:37;;;;;;;0.20;0.20;;;18.00;99.90;;;;;;5073737;28;20149;-67
2023/01/01 05:29:03;;;;;;;0.20;0.20;;;18.00;99.90;;;;;;5073976;28;20112;-69
2023/01/01 05:31:32;;;;;;;0.20;0.20;;;18.00;99.90;;;;;;5074407;28;20657;-69
2023/01/01 05:33:58;;;;;;;0.20;0.20;;;18.00;99.90;;;;;;5074158;28;20083;-68
2023/01/01 05:36:27;;;;;;;5.28;2.80;;;18.00;99.90;;;;;;5073932;28;20021;-68
2023/01/01 05:38:54;;;;;;;2.25;1.55;;;18.00;99.90;;;;;;5074318;28;20025;-68
2023/01/01 05:41:21;;;;;;;0.22;0.22;;;18.00;99.90;;;;;;5073975;28;20031;-68
2023/01/01 05:43:46;;;;;;;0.20;0.20;;;18.00;99.90;;;;;;5073856;28;20041;-68
2023/01/01 05:46:16;;;;;;;0.30;0.30;;;18.00;99.90;;;;;;5073533;28;20021;-68
2023/01/01 05:48:43;;;;;;;0.30;0.30;;;18.00;99.90;;;;;;5074141;28;20044;-68
2023/01/01 05:51:14;;;;;;;0.30;0.30;;;18.00;99.90;;;;;;5074426;28;20488;-68
2023/01/01 05:53:41;;;;;;;0.20;0.20;;;18.00;99.90;;;;;;5074476;28;20078;-68
2023/01/01 05:56:07;;;;;;;1.30;1.20;;;17.90;99.90;;;;;;5074034;28;20059;-68
2023/01/01 05:58:33;;;;;;;0.30;0.30;;;17.90;99.90;;;;;;5074501;28;20016;-68
2023/01/01 06:01:12;;;;;;;0.20;0.20;;;17.90;99.90;;;;;;5073499;28;20054;-68
2023/01/01 06:03:38;;;;;;;0.20;0.20;;;17.90;99.90;;;;;;5073082;28;20038;-69
2023/01/01 06:06:09;;;;;;;0.20;0.20;;;17.90;99.90;;;;;;5073199;28;20025;-68
2023/01/01 06:08:35;;;;;;;1.35;0.88;;;18.00;99.90;;;;;;5073241;28;20025;-69
2023/01/01 06:11:02;;;;;;;0.85;0.82;;;17.90;99.90;;;;;;5073202;28;20032;-68
2023/01/01 06:13:29;;;;;;;0.20;0.20;;;18.00;99.90;;;;;;5072507;28;20041;-68
2023/01/01 06:15:56;;;;;;;18.42;1.60;;;18.00;99.90;;;;;;5072896;28;20040;-68
2023/01/01 06:18:23;;;;;;;0.20;0.20;;;17.90;99.90;;;;;;5073017;28;20028;-68
2023/01/01 06:20:49;;;;;;;0.20;0.20;;;17.90;99.90;;;;;;5072974;28;20028;-69
2023/01/01 06:23:15;;;;;;;0.22;0.22;;;17.90;99.90;;;;;;5072846;28;20032;-69
2023/01/01 06:25:40;;;;;;;0.20;0.20;;;17.90;99.90;;;;;;5072813;28;20477;-69
2023/01/01 06:28:06;;;;;;;0.20;0.20;;;17.90;99.90;;;;;;5072805;28;20025;-69
2023/01/01 06:30:33;;;;;;;0.20;0.20;;;17.90;99.90;;;;;;5072751;28;20024;-69
2023/01/01 06:32:59;;;;;;;0.28;0.28;;;17.90;99.90;;;;;;5072733;28;20020;-68
2023/01/01 06:35:26;;;;;;;0.57;0.57;;;17.90;99.90;;;;;;5072511;28;20029;-68
2023/01/01 06:37:51;;;;;;;0.20;0.20;;;18.00;99.90;;;;;;5071409;28;20052;-69
2023/01/01 06:40:17;;;;;;;0.30;0.30;;;18.00;99.90;;;;;;5072611;28;20531;-69
2023/01/01 06:42:43;;;;;;;0.20;0.20;;;17.90;99.90;;;;;;5072431;28;20067;-68
2023/01/01 06:45:09;;;;;;;0.25;0.25;;;17.90;99.90;;;;;;5072245;28;20500;-68
2023/01/01 06:47:35;;;;;;;0.47;0.47;;;17.90;99.90;;;;;;5072344;28;20020;-69
2023/01/01 06:50:02;;;;;;;0.20;0.20;;;17.90;99.90;;;;;;5071495;28;20033;-69
2023/01/01 06:52:28;;;;;;;1.58;1.48;;;17.80;99.90;;;;;;5072395;28;20016;-70
2023/01/01 06:54:54;;;;;;;0.28;0.28;;;17.70;99.90;;;;;;5072213;28;20469;-68
2023/01/01 06:57:20;;;;;;;0.20;0.20;;;17.70;99.90;;;;;;5072201;28;20036;-69
2023/01/01 06:59:45;;;;;;;0.30;0.30;;;17.70;99.90;;;;;;5072223;28;20024;-69
2023/01/01 07:02:11;;;;;;;0.20;0.20;;;17.60;99.90;;;;;;5072453;28;20035;-69
2023/01/01 07:04:37;;;;;;;0.68;0.68;;;17.50;99.90;;;;;;5072153;28;20119;-69
2023/01/01 07:07:03;;;;;;;0.20;0.20;;;17.50;99.90;;;;;;5071891;28;20024;-68
2023/01/01 07:09:29;;;;;;;0.38;0.38;;;17.50;99.90;;;;;;5071754;28;20028;-69
2023/01/01 07:11:54;;;;;;;0.20;0.20;;;17.50;99.90;;;;;;5070548;28;20108;-68
2023/01/01 07:14:20;;;;;;;0.20;0.20;;;17.50;99.90;;;;;;5072001;28;20064;-68
2023/01/01 07:16:46;;;;;;;0.30;0.30;;;17.50;99.90;;;;;;5071694;28;20024;-69
2023/01/01 07:19:11;;;;;;;17.98;0.95;;;17.40;99.90;;;;;;5072040;28;20107;-68
2023/01/01 07:21:52;;;;;;;0.30;0.30;;;17.30;99.90;;;;;;5071751;28;20064;-69
2023/01/01 07:24:17;;;;;;;0.28;0.28;;;17.20;99.90;;;;;;5069698;28;20032;-69
2023/01/01 07:26:43;;;;;;;0.20;0.20;;;17.10;99.90;;;;;;5071479;28;20025;-69
2023/01/01 07:29:09;;;;;;;0.30;0.30;;;17.00;99.90;;;;;;5071371;28;20530;-68
2023/01/01 07:31:37;;;;;;;0.20;0.20;;;16.90;99.90;;;;;;5071839;28;20021;-69
2023/01/01 07:34:03;;;;;;;0.30;0.30;;;16.80;99.90;;;;;;5071412;28;20559;-69
2023/01/01 07:36:28;;;;;;;2.25;0.82;;;16.60;99.90;;;;;;5071431;28;20056;-69
2023/01/01 07:38:54;;;;;;;0.20;0.20;;;16.60;99.90;;;;;;5071544;28;20058;-68
2023/01/01 07:41:20;;;;;;;0.28;0.28;;;16.80;99.90;;;;;;5071262;28;20495;-68
2023/01/01 07:43:45;;;;;;;0.20;0.20;;;16.70;99.90;;;;;;5071348;28;20481;-67
2023/01/01 07:46:12;;;;;;;0.30;0.30;;;16.60;99.90;;;;;;5071284;28;20506;-67
2023/01/01 07:48:38;;;;;;;0.20;0.20;;;16.40;99.90;;;;;;5071525;28;20052;-67
2023/01/01 07:51:03;;;;;;;0.75;0.75;;;16.30;99.90;;;;;;5071176;28;20059;-69
2023/01/01 07:53:29;;;;;;;0.20;0.20;;;16.20;99.90;;;;;;5071710;28;20028;-67
2023/01/01 07:55:55;;;;;;;0.77;0.77;;;16.10;99.90;;;;;;5071704;28;20051;-67
2023/01/01 07:58:21;;;;;;;0.30;0.30;;;16.00;99.90;;;;;;5072105;28;20070;-67
2023/01/01 08:00:47;;;;;;;0.63;0.63;;;16.00;99.90;;;;;;5072716;28;20021;-68
2023/01/01 08:03:14;;;;;;;0.52;0.52;;;15.90;99.90;;;;;;5072714;28;20044;-68
2023/01/01 08:05:40;;;;;;;0.20;0.20;;;15.90;99.90;;;;;;5071443;28;20040;-68
2023/01/01 08:08:05;;;;;;;0.20;0.20;;;16.00;99.90;;;;;;5071387;28;20346;-68
2023/01/01 08:10:31;;;;;;;0.30;0.30;;;16.00;99.90;;;;;;5071107;28;20101;-67
2023/01/01 08:13:01;;;;;;;0.30;0.30;;;16.10;99.90;;;;;;5070882;28;20631;-67
2023/01/01 08:15:27;;;;;;;2.13;0.45;;;16.00;99.90;;;;;;5071043;28;20028;-67
2023/01/01 08:18:00;;;;;;;0.22;0.22;;;15.90;99.90;;;;;;5070792;28;20028;-67
2023/01/01 08:20:28;;;;;;;0.63;0.63;;;15.90;99.90;;;;;;5069782;28;20023;-66
2023/01/01 08:22:54;;;;;;;0.30;0.30;;;15.80;99.90;;;;;;5070945;28;20032;-67
2023/01/01 08:25:20;;;;;;;0.77;0.77;;;15.80;99.90;;;;;;5071079;28;20036;-67
2023/01/01 08:27:46;;;;;;;0.68;0.68;;;15.80;99.90;;;;;;5069672;28;20473;-67
2023/01/01 08:30:14;;;;;;;2.50;2.35;;;15.80;99.90;;;;;;5071044;28;20104;-68
2023/01/01 08:32:40;;;;;;;0.28;0.28;;;16.00;99.90;;;;;;5070880;28;20020;-66
2023/01/01 08:35:06;;;;;;;0.88;0.88;;;16.00;99.90;;;;;;5070905;28;20108;-67
2023/01/01 08:37:31;;;;;;;0.30;0.30;;;16.00;99.90;;;;;;5074861;28;20121;-67
2023/01/01 08:39:57;;;;;;;0.20;0.20;;;16.00;99.90;;;;;;5075047;28;20111;-68
2023/01/01 08:42:23;;;;;;;0.20;0.20;;;15.90;99.90;;;;;;5074865;28;20020;-68
2023/01/01 08:44:49;;;;;;;0.95;0.95;;;16.00;99.90;;;;;;5074710;28;20040;-67
2023/01/01 08:47:17;;;;;;;0.30;0.30;;;16.00;99.90;;;;;;5074646;28;20385;-67
2023/01/01 08:49:43;;;;;;;0.65;0.65;;;15.90;99.90;;;;;;5074727;28;20025;-67
2023/01/01 08:52:09;;;;;;;10.15;2.70;;;15.90;99.90;;;;;;5074832;28;20047;-68
2023/01/01 08:54:34;;;;;;;0.30;0.30;;;15.90;99.90;;;;;;5075185;28;20401;-67
2023/01/01 08:57:00;;;;;;;0.30;0.30;;;15.90;99.90;;;;;;5070169;28;20100;-67
2023/01/01 08:59:26;;;;;;;0.30;0.30;;;15.90;99.90;;;;;;5068840;28;20594;-67
2023/01/01 09:01:51;;;;;;;0.30;0.30;;;15.80;99.90;;;;;;5074485;28;20043;-67
2023/01/01 09:04:17;;;;;;;0.30;0.30;;;15.80;99.90;;;;;;5074202;28;20052;-69
2023/01/01 09:06:43;;;;;;;0.20;0.20;;;15.70;99.90;;;;;;5074562;28;20081;-67
2023/01/01 09:09:08;;;;;;;0.20;0.20;;;15.70;99.90;;;;;;5058766;28;20512;-67
2023/01/01 09:11:35;;;;;;;0.30;0.30;;;15.70;99.90;;;;;;5066414;28;20109;-68
2023/01/01 09:14:01;;;;;;;0.20;0.20;;;15.80;99.90;;;;;;5073754;28;20056;-68
2023/01/01 09:16:26;;;;;;;0.20;0.20;;;15.80;99.90;;;;;;5074279;28;20024;-68
2023/01/01 09:18:52;;;;;;;0.30;0.30;;;15.90;99.90;;;;;;5062791;28;20187;-68
2023/01/01 09:21:18;;;;;;;0.50;0.50;;;15.90;99.90;;;;;;5057546;28;20027;-68
2023/01/01 09:23:43;;;;;;;0.20;0.20;;;15.90;99.90;;;;;;5061958;28;20044;-69
2023/01/01 09:26:10;;;;;;;0.30;0.30;;;15.90;99.90;;;;;;5074009;28;20033;-67
2023/01/01 09:28:36;;;;;;;0.22;0.22;;;15.90;99.90;;;;;;5061055;28;20028;-68
2023/01/01 09:31:05;;;;;;;0.30;0.30;;;15.90;99.90;;;;;;5065310;28;20044;-68
2023/01/01 09:33:31;;;;;;;0.30;0.30;;;15.90;99.90;;;;;;5057454;28;20119;-68
2023/01/01 09:36:19;;;;;;;39.92;1.38;;;15.90;99.90;;;;;;5053540;28;20104;-68
2023/01/01 09:38:52;;;;;;;0.20;0.20;;;15.90;99.90;;;;;;5053053;28;20150;-66
2023/01/01 09:41:27;;;;;;;0.20;0.20;;;15.90;99.90;;;;;;5060811;28;20024;-68
2023/01/01 09:43:55;;;;;;;0.20;0.20;;;15.90;99.90;;;;;;5058594;28;20068;-69
2023/01/01 09:46:23;;;;;;;0.70;0.70;;;15.90;99.90;;;;;;5057483;28;20048;-68
2023/01/01 09:48:57;;;;;;;0.30;0.30;;;15.80;99.90;;;;;;5056130;28;20094;-68
2023/01/01 09:51:27;;;;;;;0.30;0.30;;;15.90;99.90;;;;;;5053530;28;20104;-68
2023/01/01 09:54:14;;;;;;;0.20;0.20;;;15.80;99.90;;;;;;5064705;28;20102;-69
2023/01/01 09:56:42;;;;;;;0.28;0.28;;;15.80;99.90;;;;;;5073358;28;20029;-68
2023/01/01 09:59:09;;;;;;;0.20;0.20;;;15.80;99.90;;;;;;5064078;28;20059;-69
2023/01/01 10:01:38;;;;;;;0.45;0.45;;;15.70;99.90;;;;;;5058015;28;20496;-67
2023/01/01 10:04:33;;;;;;;7.43;1.38;;;15.70;99.90;;;;;;5055401;28;20040;-68
2023/01/01 10:07:11;;;;;;;0.20;0.20;;;15.70;99.90;;;;;;5071388;28;20020;-68
2023/01/01 10:09:58;;;;;;;0.20;0.20;;;15.60;99.90;;;;;;5052846;28;20428;-68
2023/01/01 10:12:36;;;;;;;0.20;0.20;;;15.60;99.90;;;;;;5067271;28;20098;-68
2023/01/01 10:15:13;;;;;;;0.30;0.30;;;15.60;99.90;;;;;;5060894;28;20037;-68
2023/01/01 10:17:46;;;;;;;0.20;0.20;;;15.50;99.90;;;;;;5073101;28;20096;-69
2023/01/01 10:20:38;;;;;;;0.63;0.63;;;15.50;99.90;;;;;;5072904;28;20025;-68
2023/01/01 10:23:19;;;;;;;0.28;0.28;;;15.50;99.90;;;;;;5062496;28;20120;-68
2023/01/01 10:25:44;;;;;;;0.30;0.30;;;15.50;99.90;;;;;;5071435;28;20056;-69
2023/01/01 10:28:22;;;;;;;0.30;0.30;;;15.50;99.90;;;;;;5069731;28;20424;-66
2023/01/01 10:30:52;;;;;;;19.52;2.40;;;15.40;99.90;;;;;;5052681;28;20067;-67
2023/01/01 10:33:17;;;;;;;0.30;0.30;;;15.40;99.90;;;;;;5052812;28;20051;-68
2023/01/01 10:35:50;;;;;;;0.30;0.30;;;15.30;99.90;;;;;;5051402;28;20603;-69
2023/01/01 10:38:22;;;;;;;0.20;0.20;;;15.40;99.90;;;;;;5066289;28;20017;-67
2023/01/01 10:40:48;;;;;;;;;;;15.40;99.90;;;;;;5070628;28;20033;-69
2023/01/01 10:43:14;;;;;;;0.20;0.20;;;15.40;99.90;;;;;;5072381;28;19908;-68
2023/01/01 10:45:45;;;;;;;0.40;0.40;;;15.30;99.90;;;;;;5060668;28;20100;-68
2023/01/01 10:48:31;;;;;;;0.20;0.20;;;15.30;99.90;;;;;;5055963;28;20029;-68
2023/01/01 10:51:01;;;;;;;0.20;0.20;;;15.30;99.90;;;;;;5053016;28;20029;-68
2023/01/01 10:53:51;;;;;;;0.20;0.20;;;15.20;99.90;;;;;;5054150;28;20115;-69
2023/01/01 10:56:19;;;;;;;0.20;0.20;;;15.20;99.90;;;;;;5052857;28;20044;-68
2023/01/01 10:58:54;;;;;;;0.20;0.20;;;15.20;99.90;;;;;;5052757;28;20048;-68
2023/01/01 11:01:20;;;;;;;0.20;0.20;;;15.20;99.90;;;;;;5051228;28;20432;-68
2023/01/01 11:04:16;;;;;;;0.20;0.20;;;15.10;99.90;;;;;;5052090;28;20065;-67
2023/01/01 11:06:45;;;;;;;2.10;1.38;;;15.10;99.90;;;;;;5055792;28;20514;-68
2023/01/01 11:09:20;;;;;;;0.20;0.20;;;15.00;99.90;;;;;;5070775;28;20066;-67
2023/01/01 11:11:47;;;;;;;0.20;0.20;;;15.00;99.90;;;;;;5071345;28;20052;-67
2023/01/01 11:14:26;;;;;;;0.20;0.20;;;15.00;99.90;;;;;;5071632;28;20045;-69
2023/01/01 11:16:54;;;;;;;0.20;0.20;;;15.10;99.90;;;;;;5071853;28;20052;-68
2023/01/01 11:19:28;;;;;;;0.20;0.20;;;15.00;99.90;;;;;;5071820;28;20111;-68
2023/01/01 11:21:54;;;;;;;0.20;0.20;;;15.00;99.90;;;;;;5071638;28;20025;-68
2023/01/01 11:24:25;;;;;;;0.20;0.20;;;14.90;99.90;;;;;;5071618;28;20036;-69
2023/01/01 11:26:51;;;;;;;0.30;0.30;;;14.90;99.90;;;;;;5070663;28;20020;-69
2023/01/01 11:29:27;;;;;;;0.30;0.30;;;14.90;99.90;;;;;;5071917;28;20107;-68
2023/01/01 11:31:55;;;;;;;0.30;0.30;;;14.90;99.90;;;;;;5072160;28;20074;-68
2023/01/01 11:34:29;;;;;;;0.30;0.30;;;15.00;99.90;;;;;;5071873;28;20024;-68
2023/01/01 11:37:13;;;;;;;0.40;0.40;;;14.90;99.90;;;;;;5071666;28;20115;-66
2023/01/01 11:39:48;;;;;;;1.15;1.15;;;14.90;99.90;;;;;;5071921;28;20591;-69
2023/01/01 11:42:24;;;;;;;0.40;0.40;;;14.90;99.90;;;;;;5071831;28;20040;-68
2023/01/01 11:45:04;;;;;;;0.30;0.30;;;14.90;99.90;;;;;;5071825;28;20047;-68
2023/01/01 11:47:39;;;;;;;0.20;0.20;;;14.90;99.90;;;;;;5071780;28;20038;-68
2023/01/01 11:50:26;;;;;;;0.20;0.20;;;14.90;99.90;;;;;;5072843;28;20054;-68
2023/01/01 11:52:52;;;;;;;0.25;0.25;;;14.90;99.90;;;;;;5071446;28;20055;-67
2023/01/01 11:55:41;;;;;;;0.20;0.20;;;15.00;99.90;;;;;;5073202;28;20142;-69
2023/01/01 11:58:40;;;;;;;0.20;0.20;;;15.00;99.90;;;;;;5072373;28;20107;-68
2023/01/01 12:01:24;;;;;;;0.20;0.20;;;15.00;99.90;;;;;;5072465;28;20501;-68
2023/01/01 12:04:01;;;;;;;0.30;0.30;;;15.00;99.90;;;;;;5051072;28;20500;-67
2023/01/01 12:06:41;;;;;;;0.20;0.20;;;15.00;99.90;;;;;;5051515;28;20029;-68
2023/01/01 12:09:18;;;;;;;0.82;0.82;;;15.00;99.90;;;;;;5051125;28;20036;-68
2023/01/01 12:11:47;;;;;;;0.20;0.20;;;15.00;99.90;;;;;;5050576;28;20504;-67
2023/01/01 12:14:34;;;;;;;0.68;0.68;;;15.00;99.90;;;;;;5050938;28;20085;-67
2023/01/01 12:17:26;;;;;;;0.20;0.20;;;15.10;99.90;;;;;;5051175;28;20116;-67
2023/01/01 12:20:00;;;;;;;0.90;0.90;;;15.10;99.90;;;;;;5046335;28;20037;-67
2023/01/01 12:22:26;;;;;;;11.05;1.10;;;15.00;99.90;;;;;;5051131;28;20037;-67
2023/01/01 12:24:53;;;;;;;0.20;0.20;;;15.10;99.90;;;;;;5050816;28;20029;-67
2023/01/01 12:28:09;;;;;;;0.30;0.30;;;15.10;99.90;;;;;;5051212;28;20025;-67
2023/01/01 12:30:35;;;;;;;0.30;0.30;;;15.10;99.90;;;;;;5008824;28;20048;-67
2023/01/01 12:33:03;;;;;;;3.50;3.30;;;15.10;99.90;;;;;;5008555;28;20370;-67
2023/01/01 12:36:01;;;;;;;0.73;0.73;;;15.00;99.90;;;;;;5028428;28;20069;-67
2023/01/01 12:38:39;;;;;;;0.20;0.20;;;15.00;99.90;;;;;;5050949;28;20028;-67
2023/01/01 12:41:12;;;;;;;0.20;0.20;;;15.10;99.90;;;;;;5050946;28;20036;-67
2023/01/01 12:43:43;;;;;;;0.22;0.22;;;15.00;99.90;;;;;;5050497;28;20082;-67
2023/01/01 12:46:27;;;;;;;0.30;0.30;;;15.00;99.90;;;;;;5050553;28;20024;-67
2023/01/01 12:48:52;;;;;;;0.20;0.20;;;15.00;99.90;;;;;;5050699;28;20033;-67
2023/01/01 12:51:42;;;;;;;0.20;0.20;;;15.00;99.90;;;;;;5050652;28;20021;-68
2023/01/01 12:54:23;;;;;;;0.40;0.40;;;14.90;99.90;;;;;;5050783;28;20037;-67
2023/01/01 12:57:05;;;;;;;2.35;2.15;;;14.90;45.40;;;;;;5049250;28;20547;-68
2023/01/01 12:59:38;;;;;;;0.30;0.30;;;14.80;31.00;;;;;;5050863;28;20032;-68
2023/01/01 13:02:25;;;;;;;13.02;0.95;;;14.80;99.90;;;;;;5050630;28;20025;-67
2023/01/01 13:05:04;;;;;;;0.20;0.20;;;14.80;99.90;;;;;;5050910;28;20033;-68
2023/01/01 13:07:35;;;;;;;0.20;0.20;;;14.80;99.90;;;;;;5050784;28;20034;-66
2023/01/01 13:10:17;;;;;;;0.20;0.20;;;14.80;99.90;;;;;;5066539;28;20052;-66
2023/01/01 13:12:44;;;;;;;0.30;0.28;;;14.70;99.90;;;;;;5070063;28;20139;-66